Date,TemperatureHighF,TemperatureAvgF,TemperatureLowF,DewpointHighF,DewpointAvgF,DewpointLowF,HumidityHigh,HumidityAvg,HumidityLow,PressureMaxIn,PressureMinIn,WindSpeedMaxMPH,WindSpeedAvgMPH,GustSpeedMaxMPH,PrecipitationSumIn
2013-1-1,36,34,31,33,30,25,89,85,78,30.09,30.01,8,1,8,0.11
2013-1-2,36,31,26,26,22,18,81,71,53,30.88,30.07,8,0,8,0.00
2013-1-3,41,31,23,28,23,19,86,72,53,30.30,30.17,9,2,9,0.00
2013-1-4,42,33,29,26,24,22,77,67,55,30.35,30.26,13,3,13,0.00
2013-1-5,44,33,24,31,25,19,85,72,52,30.39,30.17,8,1,8,0.00
2013-1-6,45,39,33,33,29,23,71,66,60,30.31,30.02,15,3,15,0.00
2013-1-7,42,34,27,28,24,21,78,67,52,30.47,30.22,6,1,6,0.00
2013-1-8,54,36,24,36,26,19,84,68,41,30.36,30.23,8,1,8,0.00
2013-1-9,53,41,33,48,37,26,90,84,75,30.48,30.23,7,0,7,0.02
2013-1-10,48,40,32,42,36,30,94,89,80,30.50,30.13,5,0,5,0.01
2013-1-11,62,52,41,58,49,38,96,91,76,30.13,29.94,18,2,18,0.28
2013-1-12,67,56,46,63,54,45,98,95,85,30.06,29.89,6,0,6,0.07
2013-1-13,62,58,50,60,57,47,99,95,86,30.02,29.83,17,1,17,0.33
2013-1-14,50,38,32,47,33,26,91,82,72,30.38,30.03,11,3,11,0.01
2013-1-15,37,33,31,31,29,26,92,83,75,30.32,30.00,11,3,11,0.37
2013-1-16,36,35,33,34,33,31,95,94,92,30.07,29.86,5,1,5,0.13
2013-1-17,36,34,31,34,31,28,94,88,80,30.29,30.06,17,1,17,0.02
2013-1-18,38,32,24,28,23,18,89,71,48,30.52,30.29,16,2,16,0.01
2013-1-19,56,43,28,33,26,22,79,55,31,30.29,29.96,20,4,20,0.00
2013-1-20,49,42,31,34,21,6,67,45,20,30.15,29.96,15,4,15,0.00
2013-1-21,39,29,19,20,14,2,74,54,38,30.18,30.00,19,4,19,0.00
2013-1-22,25,18,13,3,1,-2,60,47,34,30.34,30.17,14,3,14,0.00
2013-1-23,26,21,15,9,5,1,62,48,38,30.34,30.05,11,2,11,0.00
2013-1-24,28,23,19,14,8,3,69,53,38,30.51,30.05,17,2,17,0.00
2013-1-25,27,23,20,24,14,5,86,69,50,30.44,30.01,5,1,5,0.00
2013-1-26,37,30,25,24,22,19,87,74,59,30.41,30.13,11,1,11,0.06
2013-1-27,41,31,18,31,22,14,85,70,50,30.43,30.22,7,1,7,0.11
2013-1-28,63,47,35,53,43,31,94,87,61,30.22,30.07,19,2,19,0.33
2013-1-29,71,59,47,56,52,45,97,79,55,30.09,29.74,15,2,15,0.00
2013-1-30,68,58,40,58,52,36,94,81,62,29.74,29.32,24,4,24,0.96
2013-1-31,40,31,26,36,23,19,86,72,59,30.45,29.50,23,4,24,1.02
2013-2-1,30,18,13,26,8,4,87,65,51,30.39,29.89,17,4,17,0.00
2013-2-2,31,23,12,28,18,6,90,81,72,30.35,30.00,8,1,8,0.00
2013-2-3,31,28,26,28,22,19,89,77,66,30.13,29.90,14,3,14,0.00
2013-2-4,41,30,19,35,23,14,91,75,55,30.13,29.83,11,1,11,0.12
2013-2-5,47,40,36,42,37,35,96,88,76,30.00,29.85,12,2,12,0.04
2013-2-6,48,39,33,35,30,-16,81,71,54,30.25,30.00,8,2,8,0.00
2013-2-7,62,44,32,38,32,22,85,64,33,30.23,29.88,7,1,7,0.05
2013-2-8,46,40,34,42,33,25,88,74,69,30.28,29.80,14,3,14,0.08
2013-2-9,43,35,28,25,22,-14,73,59,10,30.41,30.25,5,2,5,0.01
2013-2-10,56,40,0,42,29,20,84,66,33,30.25,29.88,11,2,11,0.12
2013-2-11,60,51,42,46,38,25,79,63,29,30.06,29.83,17,4,17,0.12
2013-2-12,54,43,33,31,26,23,73,53,30,30.15,29.90,11,2,11,0.00
2013-2-13,43,37,32,33,30,25,88,76,60,29.93,29.69,65,1,65,0.05
2013-2-14,52,40,28,38,32,25,91,73,49,29.99,29.88,13,2,13,0.00
2013-2-15,43,37,32,37,32,27,89,83,67,30.11,29.95,10,1,10,0.13
2013-2-16,95,30,23,39,24,10,91,79,10,30.10,29.42,16,2,16,0.14
2013-2-17,33,25,19,13,10,7,68,53,36,30.25,30.07,14,3,14,0.00
2013-2-18,59,38,18,35,22,11,78,55,37,30.25,29.82,15,2,15,0.00
2013-2-19,50,42,30,38,28,15,84,60,40,30.08,29.76,29,7,29,0.05
2013-2-20,37,30,24,18,14,11,60,52,41,30.28,30.08,16,5,16,0.00
2013-2-21,38,28,17,20,16,11,76,60,47,30.35,30.14,12,2,12,0.00
2013-2-22,60,42,30,50,36,18,92,80,56,30.15,29.89,13,2,13,0.02
2013-2-23,52,45,36,40,36,28,87,72,50,29.97,29.85,11,2,11,0.01
2013-2-24,60,52,46,46,32,25,84,52,29,29.97,29.84,17,7,17,0.01
2013-2-25,54,42,33,30,26,23,73,55,30,30.14,29.93,11,2,11,0.00
2013-2-26,43,37,34,33,29,25,87,72,51,29.95,29.69,8,1,8,0.05
2013-2-27,95,34,28,39,30,25,91,86,10,29.98,29.42,18,2,18,0.02
2013-2-28,36,35,33,33,31,29,92,86,81,29.89,29.68,17,4,17,0.06
2013-3-1,40,36,32,34,31,25,93,82,70,29.99,29.86,11,2,11,0.04
2013-3-2,33,31,29,26,22,19,80,71,64,30.04,29.95,11,3,11,0.00
2013-3-3,33,30,28,24,21,19,79,69,57,30.08,30.00,12,2,12,0.00
2013-3-4,45,34,21,30,20,15,83,59,32,30.19,30.01,9,1,9,0.02
2013-3-5,47,40,33,44,34,28,94,82,72,30.04,29.47,24,3,24,0.41
2013-3-6,36,33,31,32,30,27,89,86,83,30.22,29.64,19,4,19,0.13
2013-3-7,40,35,32,32,30,28,87,81,72,30.35,30.21,10,2,10,0.00
2013-3-8,49,37,27,33,28,23,90,70,45,30.44,30.32,12,2,12,0.00
2013-3-9,62,44,26,34,28,22,85,59,27,30.37,30.10,8,1,8,0.00
2013-3-10,77,59,43,41,33,23,75,43,14,30.11,29.90,11,2,11,0.00
2013-3-11,66,59,44,52,40,29,86,54,28,29.90,29.69,16,4,16,0.15
2013-3-12,44,40,35,39,33,29,83,74,61,30.02,29.86,14,2,14,0.00
2013-3-13,38,35,30,31,25,19,81,68,49,30.28,30.01,18,4,18,0.00
2013-3-14,48,36,25,25,20,11,77,55,24,30.36,30.19,14,3,14,0.00
2013-3-15,60,45,29,38,30,20,74,57,40,30.19,29.83,13,2,13,0.00
2013-3-16,73,54,43,54,44,35,90,69,46,29.99,29.63,22,4,22,0.13
2013-3-17,44,36,34,35,32,31,92,85,72,30.13,29.97,9,2,9,0.37
2013-3-18,54,44,35,52,43,33,98,93,85,29.99,29.65,16,3,16,0.86
2013-3-19,52,44,38,46,25,5,85,51,18,30.09,29.77,24,7,24,0.00
2013-3-20,52,39,29,24,18,11,66,42,27,30.09,29.83,32,5,32,0.00
2013-3-21,33,28,24,24,14,9,77,55,41,30.03,29.92,17,3,17,0.00
2013-3-22,48,34,20,23,16,11,76,50,25,30.08,29.97,9,2,9,0.00
2013-3-23,55,41,29,27,22,17,71,49,23,30.06,29.86,9,1,9,0.00
2013-3-24,40,39,37,38,29,20,93,69,44,29.87,29.40,11,3,11,0.44
2013-3-25,40,36,33,38,32,29,93,86,74,29.84,29.42,21,5,21,0.12
2013-3-26,42,36,34,35,32,30,90,84,72,30.20,29.88,12,3,12,0.02
2013-3-27,47,38,31,34,29,27,83,69,50,30.28,30.19,12,3,12,0.01
2013-3-28,54,42,28,30,26,-25,82,57,7,30.33,30.25,14,2,14,0.00
2013-3-29,60,45,28,34,27,22,80,53,26,30.32,30.17,11,1,11,0.00
2013-3-30,47,46,46,31,30,30,54,53,52,30.21,30.21,2,1,2,0.00
2013-3-31,55,51,44,50,46,28,90,83,54,30.33,29.80,11,2,11,0.08
2013-4-1,51,46,36,45,36,22,90,68,44,30.10,29.82,14,3,14,0.02
2013-4-2,51,40,28,24,20,12,74,47,22,30.26,30.09,13,2,13,0.00
2013-4-3,53,41,27,23,17,8,70,41,17,30.39,30.25,11,2,11,0.00
2013-4-4,54,44,34,38,22,15,76,43,25,30.33,30.00,8,2,8,0.00
2013-4-5,67,51,33,41,32,24,89,54,22,30.13,29.95,13,2,13,0.01
2013-4-6,70,54,36,33,24,19,57,34,16,30.24,29.97,8,2,8,0.00
2013-4-7,76,66,58,50,40,29,63,40,31,30.00,29.95,21,4,21,0.00
2013-4-8,79,65,50,52,48,44,80,56,36,30.03,29.93,20,2,20,0.00
2013-4-9,86,69,54,59,50,47,79,55,29,30.10,29.96,18,2,18,0.00
2013-4-10,88,73,58,60,54,50,78,53,33,30.02,29.82,20,3,20,0.00
2013-4-11,83,71,58,60,54,47,86,57,30,29.84,29.54,29,3,29,0.14
2013-4-12,60,57,50,58,45,35,91,66,40,29.94,29.51,20,5,20,0.08
2013-4-13,64,53,42,39,35,30,76,52,28,30.03,29.93,17,4,17,0.00
2013-4-14,73,57,40,42,37,34,79,51,26,30.11,29.90,8,2,8,0.00
2013-4-15,75,66,42,55,49,36,79,56,44,30.05,29.95,11,3,11,0.00
2013-4-16,86,70,57,63,55,50,90,62,31,30.22,30.02,24,3,24,0.56
2013-4-17,77,66,61,65,60,57,97,83,56,30.25,30.03,10,2,10,0.26
2013-4-18,88,73,57,62,56,51,93,61,36,30.03,29.74,17,4,17,0.00
2013-4-19,75,58,45,61,46,33,88,66,45,30.03,29.56,27,5,27,0.30
2013-4-20,59,49,39,35,30,22,75,50,27,30.38,30.03,18,4,18,0.00
2013-4-21,62,51,37,35,27,23,69,43,23,30.51,30.34,13,2,13,0.00
2013-4-22,72,57,39,42,35,25,77,46,25,30.36,30.15,8,1,8,0.00
2013-4-23,77,62,44,48,41,34,73,50,28,30.18,29.95,12,2,12,0.00
2013-4-24,69,58,43,57,46,36,85,65,52,30.25,29.82,23,4,23,0.11
2013-4-25,64,52,41,40,36,25,86,59,24,30.36,30.24,13,2,13,0.00
2013-4-26,66,54,38,40,34,26,79,49,23,30.48,30.33,7,1,7,0.00
2013-4-27,70,58,45,50,42,37,78,59,33,30.35,30.11,10,1,10,0.00
2013-4-28,70,61,55,57,53,50,93,76,59,30.11,29.88,11,3,11,0.15
2013-4-29,68,61,57,58,55,52,91,80,67,30.01,29.92,7,1,7,0.01
2013-4-30,80,65,50,60,52,48,94,68,36,30.08,29.99,8,1,8,0.00
2013-5-1,83,68,54,60,53,49,88,61,37,30.22,30.08,12,2,12,0.00
2013-5-2,77,67,56,57,53,48,78,62,47,30.26,30.12,7,1,7,0.00
2013-5-3,77,66,56,55,46,33,81,51,23,30.15,30.04,11,2,11,0.00
2013-5-4,76,64,54,55,45,39,71,51,36,30.08,29.90,12,2,12,0.00
2013-5-5,61,58,54,56,48,35,93,71,41,30.03,29.90,8,1,8,0.26
2013-5-6,63,58,56,58,54,50,93,86,74,29.93,29.87,14,3,14,0.14
2013-5-7,67,58,52,59,55,50,96,90,73,29.97,29.90,7,1,7,0.22
2013-5-8,70,61,55,60,56,54,97,85,57,30.00,29.88,8,2,8,0.02
2013-5-9,79,66,53,62,57,50,95,75,48,30.06,29.97,9,1,9,0.00
2013-5-10,78,66,59,64,60,55,91,81,58,30.01,29.87,11,2,11,0.11
2013-5-11,64,61,53,61,56,49,95,85,74,29.95,29.83,14,2,14,0.02
2013-5-12,66,53,44,56,38,31,88,60,34,30.13,29.85,17,3,17,0.82
2013-5-13,63,52,42,41,36,29,84,56,29,30.19,30.10,14,2,14,0.01
2013-5-14,60,44,39,45,37,34,86,77,51,30.19,30.14,8,0,8,0.00
2013-5-15,69,62,55,56,54,51,93,76,60,30.19,30.02,11,3,11,0.15
2013-5-16,68,63,57,65,58,53,93,86,66,30.16,30.07,7,1,7,0.01
2013-5-17,81,69,59,69,63,58,97,82,61,30.24,30.15,7,1,7,0.00
2013-5-18,83,71,64,68,64,61,93,80,52,30.22,30.11,8,1,8,0.07
2013-5-19,84,73,65,71,66,63,95,81,55,30.19,30.07,7,1,7,0.00
2013-5-20,85,74,65,72,67,62,93,79,61,30.21,30.08,7,1,7,0.00
2013-5-21,87,75,66,73,67,63,94,78,54,30.15,30.00,17,1,17,0.04
2013-5-22,87,74,63,70,63,60,92,71,46,30.08,29.94,18,2,18,0.04
2013-5-23,78,70,60,69,62,54,92,76,52,30.12,29.97,19,3,19,0.15
2013-5-24,65,57,50,54,42,36,82,59,38,30.44,30.13,17,5,17,0.01
2013-5-25,68,56,42,48,41,36,85,61,33,30.54,30.37,12,1,12,0.00
2013-5-26,73,62,50,50,45,41,78,55,35,30.46,30.35,7,1,7,0.00
2013-5-27,82,68,57,62,55,49,79,65,46,30.38,30.17,8,1,8,0.00
2013-5-28,87,74,65,66,60,57,78,63,41,30.26,30.02,16,2,16,0.00
2013-5-29,88,76,63,66,62,56,82,63,40,30.19,30.08,12,2,12,0.00
2013-5-30,90,77,64,68,63,60,89,66,39,30.25,30.09,8,1,8,0.00
2013-5-31,91,77,65,67,64,60,86,65,41,30.17,30.02,14,1,14,0.00
2013-6-1,87,78,70,71,66,62,81,67,52,30.06,29.85,14,2,14,0.00
2013-6-2,78,73,68,68,66,64,89,79,62,29.96,29.86,9,1,9,0.07
2013-6-3,78,69,64,66,61,55,95,77,50,30.07,29.90,11,2,11,6.11
2013-6-4,79,67,56,56,52,48,85,61,37,30.16,30.06,9,2,9,0.00
2013-6-5,87,70,56,67,59,50,84,69,45,30.11,29.91,10,1,10,0.00
2013-6-6,77,72,68,72,67,65,95,86,74,29.93,29.77,8,1,8,0.46
2013-6-7,71,66,61,65,61,57,93,84,69,29.91,29.78,9,2,9,0.00
2013-6-8,81,69,60,63,60,57,92,73,51,30.08,29.90,5,1,5,0.00
2013-6-9,87,72,62,70,64,58,97,78,46,30.13,30.00,8,1,8,0.47
2013-6-10,78,69,65,72,68,64,99,94,68,30.02,29.83,12,1,12,0.45
2013-6-11,84,73,63,69,66,62,99,80,56,29.99,29.90,9,2,9,0.01
2013-6-12,91,79,68,77,70,64,91,77,56,29.98,29.82,11,1,11,0.00
2013-6-13,80,75,65,74,67,58,92,77,58,29.90,29.65,16,3,16,0.27
2013-6-14,80,70,59,62,58,55,90,68,44,30.08,29.90,11,2,11,0.00
2013-6-15,83,70,58,66,59,54,89,70,44,30.16,30.02,8,1,8,0.01
2013-6-16,81,72,65,72,66,61,92,82,65,30.08,29.99,8,1,8,0.06
2013-6-17,86,75,66,73,68,64,96,80,54,30.02,29.90,6,1,6,0.00
2013-6-18,76,70,66,69,66,63,97,88,73,29.98,29.88,10,1,10,0.37
2013-6-19,81,71,63,66,62,58,93,75,50,30.15,29.97,8,1,8,0.00
2013-6-20,86,73,61,68,61,58,91,69,41,30.23,30.14,7,1,7,0.00
2013-6-21,88,76,62,70,64,58,90,69,42,30.25,30.15,8,1,8,0.00
2013-6-22,89,78,68,73,68,64,91,73,51,30.24,30.09,8,1,8,0.00
2013-6-23,90,78,68,72,67,63,91,70,42,30.20,30.08,9,1,9,0.00
2013-6-24,90,78,68,72,68,65,91,72,49,30.19,30.06,10,1,10,0.00
2013-6-25,91,80,70,74,70,66,89,73,50,30.13,29.96,8,1,8,0.00
2013-6-26,86,78,70,74,70,66,93,79,62,29.99,29.84,12,1,12,0.17
2013-6-27,82,73,68,74,70,67,99,91,74,29.88,29.74,9,1,9,0.86
2013-6-28,88,79,71,72,67,59,96,70,44,29.75,29.60,14,3,14,0.00
2013-6-29,84,72,63,69,64,59,96,78,54,29.72,29.62,9,1,9,0.41
2013-6-30,83,71,64,73,67,63,99,89,62,29.84,29.69,8,1,8,0.08
2013-7-1,83,72,66,71,67,65,99,85,61,29.95,29.81,9,1,9,0.26
2013-7-2,84,73,65,72,68,64,98,84,62,30.07,29.93,8,1,8,0.01
2013-7-3,86,75,69,73,70,66,94,85,61,30.17,30.06,7,1,7,0.02
2013-7-4,78,72,69,73,70,68,99,93,81,30.23,30.12,8,0,8,0.59
2013-7-5,82,73,68,75,71,68,99,93,72,30.20,30.12,9,1,9,0.13
2013-7-6,86,74,70,76,72,69,99,92,63,30.19,30.08,12,1,12,0.32
2013-7-7,78,72,68,74,70,67,99,95,85,30.17,30.06,5,0,5,0.60
2013-7-8,86,75,66,75,71,65,99,86,60,30.19,30.09,6,1,6,0.00
2013-7-9,90,80,72,77,73,70,96,81,53,30.14,30.03,11,1,11,0.01
2013-7-10,89,78,69,79,73,67,95,87,64,30.06,29.90,15,1,15,0.24
2013-7-11,81,72,67,73,69,66,99,90,72,30.01,29.94,9,1,9,0.01
2013-7-12,81,72,63,66,61,57,85,69,51,30.10,30.00,13,2,13,0.00
2013-7-13,85,74,63,70,65,59,90,73,56,30.17,30.07,10,1,10,0.00
2013-7-14,90,79,70,75,70,66,91,75,58,30.27,30.15,9,1,9,0.00
2013-7-15,92,80,70,74,70,67,92,73,49,30.34,30.25,5,1,5,0.00
2013-7-16,92,81,71,76,72,68,92,74,54,30.36,30.26,6,0,6,0.00
2013-7-17,94,82,74,80,74,71,92,76,51,30.33,30.19,7,1,11,0.00
2013-7-18,94,83,75,79,75,72,93,78,54,30.22,30.07,5,1,5,0.00
2013-7-19,92,82,75,78,74,70,94,78,58,30.10,29.95,8,1,8,0.00
2013-7-20,92,79,71,76,72,68,96,80,53,30.00,26.93,13,2,13,0.43
2013-7-21,83,75,71,75,72,70,99,90,71,30.02,29.92,6,1,6,0.22
2013-7-22,84,74,71,75,72,69,99,93,73,29.98,29.81,11,1,11,0.71
2013-7-23,87,76,70,75,72,67,99,87,60,29.88,29.77,12,1,12,0.04
2013-7-24,78,72,68,70,66,61,99,85,62,29.99,29.79,9,2,9,0.28
2013-7-25,78,69,60,62,59,56,87,72,51,30.11,29.99,8,1,8,0.00
2013-7-26,83,70,59,66,61,56,95,75,46,30.13,30.00,7,1,7,0.00
2013-7-27,92,76,66,76,68,62,92,78,53,30.38,29.91,11,1,11,0.25
2013-7-28,77,69,61,65,60,54,96,75,47,30.12,29.93,10,2,10,0.01
2013-7-29,81,68,55,63,58,52,92,71,45,30.24,30.11,8,1,8,0.02
2013-7-30,82,72,61,68,63,58,92,76,50,30.28,30.18,6,0,6,0.00
2013-7-31,74,70,68,69,67,65,96,88,79,30.19,30.00,5,0,5,0.05
2013-8-1,84,74,68,71,67,62,95,80,56,30.02,29.96,11,2,11,0.00
2013-8-2,83,73,62,67,64,59,92,74,48,30.08,30.00,8,1,8,0.00
2013-8-3,81,73,68,71,68,64,91,83,69,30.06,30.00,5,0,5,0.01
2013-8-4,80,72,64,69,63,55,96,77,49,30.15,30.04,10,2,10,0.00
2013-8-5,81,69,58,64,58,55,90,70,41,30.17,30.03,7,1,7,0.00
2013-8-6,85,73,64,70,64,59,86,74,51,30.06,29.99,11,1,11,0.00
2013-8-7,86,76,69,76,71,66,95,83,68,30.02,29.95,9,1,9,0.00
2013-8-8,83,77,72,77,73,70,96,88,73,30.02,29.97,8,1,8,0.20
2013-8-9,83,75,72,75,73,72,99,94,73,30.05,29.97,9,2,9,0.39
2013-8-10,92,80,72,75,72,69,99,80,49,30.27,29.88,8,1,8,0.38
2013-8-11,92,77,71,76,72,68,96,84,53,30.29,29.98,5,0,7,0.22
2013-8-12,82,75,71,77,73,70,99,93,79,30.03,29.86,8,1,8,0.02
2013-8-13,79,72,66,74,69,59,99,89,72,29.96,29.81,11,2,11,0.34
2013-8-14,69,60,56,59,55,53,91,83,64,30.08,29.96,8,1,8,0.00
2013-8-15,76,64,53,60,55,50,92,73,48,30.13,30.02,8,1,8,0.00
2013-8-16,80,68,57,65,59,54,91,75,51,30.09,30.03,8,1,8,0.00
2013-8-17,79,69,60,65,62,57,92,78,59,30.18,30.08,10,1,10,0.00
2013-8-18,71,68,66,69,66,63,97,93,85,30.21,30.14,3,0,3,0.27
2013-8-19,80,70,66,70,66,64,99,89,65,30.19,30.09,6,0,6,0.00
2013-8-20,83,73,64,71,66,62,98,82,56,30.22,30.12,8,1,8,0.00
2013-8-21,85,73,67,76,69,65,96,86,68,30.21,30.09,10,1,10,0.00
2013-8-22,85,75,66,76,70,64,95,85,67,30.18,30.04,8,1,8,0.06
2013-8-23,84,75,69,72,69,65,98,83,57,30.15,30.03,13,1,13,0.01
2013-8-24,85,72,63,70,64,58,95,76,43,30.30,30.15,8,1,8,0.00
2013-8-25,84,71,61,66,61,56,93,73,43,30.39,30.26,8,1,8,1.35
2013-8-26,86,73,60,74,65,57,93,78,54,30.30,30.11,7,1,7,0.00
2013-8-27,86,77,69,75,71,67,95,84,66,30.11,30.00,7,1,7,0.00
2013-8-28,90,79,74,76,74,71,99,83,58,30.00,29.87,14,2,14,0.89
2013-8-29,74,74,73,74,73,73,99,99,99,29.96,29.94,2,0,2,0.00
2013-8-30,80,76,73,72,71,69,90,84,74,29.91,29.89,0,0,0,0.01
2013-8-31,81,74,70,72,70,68,97,88,72,29.97,29.81,8,1,8,0.12
2013-9-1,84,76,70,73,70,68,96,83,66,29.88,29.80,6,1,6,0.00
2013-9-2,86,76,70,74,70,66,96,82,60,29.90,29.81,8,1,8,0.00
2013-9-3,79,72,63,67,62,9,91,74,55,30.09,29.87,11,2,11,0.00
2013-9-4,79,68,0,62,59,0,90,74,51,30.17,30.08,4,0,4,1.02
2013-9-5,83,70,58,68,62,55,92,76,51,30.20,30.13,8,1,8,0.00
2013-9-6,79,68,58,63,56,49,82,66,35,30.25,30.12,6,1,6,0.00
2013-9-7,83,67,54,66,58,50,93,76,39,30.14,30.00,6,0,6,0.00
2013-9-8,87,75,66,72,67,62,92,78,54,30.02,29.95,6,1,6,0.00
2013-9-9,88,78,68,74,69,65,95,77,52,30.09,30.01,8,1,8,0.00
2013-9-10,90,78,70,75,71,68,94,79,58,30.19,30.07,8,1,8,0.00
2013-9-11,89,78,71,75,72,69,94,81,58,30.20,30.07,10,1,10,0.00
2013-9-12,87,75,70,74,70,67,94,86,63,30.07,29.88,12,1,12,0.38
2013-9-13,69,64,-4,68,55,-47,98,74,10,30.07,29.86,11,3,11,0.01
2013-9-14,69,59,51,52,50,47,88,72,47,30.17,30.07,7,1,7,0.00
2013-9-15,73,64,50,61,56,47,93,76,65,30.17,30.06,4,2,4,0.00
2013-9-16,73,67,59,62,60,55,94,78,65,30.27,30.07,4,2,4,0.02
2013-9-17,72,64,54,60,56,51,93,76,62,30.32,30.17,10,3,10,0.00
2013-9-18,72,68,58,58,53,51,90,62,49,30.20,30.11,92,56,92,0.00
2013-9-19,71,71,71,51,51,51,49,49,49,30.13,30.00,92,92,92,0.00
2013-9-20,71,71,71,51,51,51,49,49,49,30.04,29.83,92,92,92,0.00
2013-9-21,71,71,71,51,51,51,49,49,49,29.84,29.70,92,92,92,0.00
2013-9-22,71,71,71,51,51,51,49,49,49,30.01,29.83,92,92,92,0.00
2013-9-23,71,62,48,52,51,46,91,71,49,30.12,30.00,92,34,92,0.00
2013-9-24,58,54,46,52,49,42,90,83,80,30.09,29.93,4,1,4,0.00
2013-9-25,58,58,55,55,54,52,92,87,81,29.94,29.87,1,0,2,0.00
2013-9-26,62,58,58,58,55,55,90,90,87,30.06,29.91,1,0,1,0.00
2013-9-27,78,64,56,64,57,54,94,78,48,30.17,30.06,5,1,5,0.00
2013-9-28,78,64,55,64,57,51,95,79,50,30.22,30.09,5,1,5,0.00
2013-9-29,76,65,57,64,59,54,92,82,64,30.11,30.00,7,1,7,0.00
2013-9-30,75,66,60,65,61,58,94,85,66,30.07,29.98,7,0,7,0.00
2013-10-1,80,68,60,66,61,57,94,79,51,30.12,30.03,9,1,9,0.00
2013-10-2,82,70,60,70,64,58,94,81,61,30.15,30.04,4,0,5,0.00
2013-10-3,82,70,66,71,66,63,97,88,63,30.12,30.04,9,1,9,0.12
2013-10-4,83,71,63,72,65,62,99,84,57,30.14,30.05,7,1,8,0.01
2013-10-5,83,72,66,71,67,63,95,84,65,30.11,29.96,8,0,8,0.00
2013-10-6,85,74,62,68,64,56,95,73,47,29.97,29.74,11,2,11,0.00
2013-10-7,65,58,50,56,50,45,94,77,51,30.15,29.84,14,2,14,0.11
2013-10-8,68,55,46,52,46,43,93,73,40,30.27,30.14,11,1,11,0.00
2013-10-9,71,57,46,53,47,41,92,72,41,30.25,30.15,6,1,8,0.00
2013-10-10,73,58,46,52,47,43,89,71,38,30.18,30.05,6,1,6,0.00
2013-10-11,76,62,49,59,52,45,90,73,50,30.09,29.99,10,1,10,0.00
2013-10-12,64,61,58,58,56,54,89,84,78,30.14,30.03,4,0,4,0.00
2013-10-13,72,64,57,63,59,55,93,84,70,30.26,30.13,7,1,7,0.00
2013-10-14,68,64,61,62,59,57,89,84,77,30.29,30.19,7,1,7,0.00
2013-10-15,73,66,60,63,60,57,95,83,68,30.19,29.97,5,0,6,0.00
2013-10-16,68,64,63,63,62,61,97,92,80,29.99,29.91,8,1,8,0.01
2013-10-17,63,57,52,62,55,51,97,96,93,30.00,29.84,9,1,9,0.05
2013-10-18,62,53,45,53,47,43,99,82,50,30.08,29.96,6,1,6,0.00
2013-10-19,56,48,43,51,44,40,94,87,78,30.03,29.83,12,1,12,0.04
2013-10-20,61,48,38,47,40,36,94,76,43,30.11,30.02,8,1,8,0.00
2013-10-21,68,52,38,48,41,34,92,69,33,30.07,29.91,11,1,11,0.00
2013-10-22,55,50,44,47,39,33,87,68,44,30.06,29.85,16,2,16,0.11
2013-10-23,47,44,37,45,40,35,93,88,80,30.04,29.72,11,2,11,0.24
2013-10-24,48,42,37,39,36,31,93,78,54,30.23,30.03,13,2,13,0.02
2013-10-25,48,41,34,37,33,29,90,75,52,30.42,30.23,8,1,8,0.00
2013-10-26,53,41,30,34,30,26,87,66,39,30.32,29.97,14,2,14,0.00
2013-10-27,61,48,37,44,37,33,87,67,43,30.11,30.03,10,1,10,0.00
2013-10-28,59,48,38,50,42,34,91,80,61,30.27,30.10,4,0,4,0.00
2013-10-29,58,50,44,54,48,41,96,91,84,30.35,30.22,4,0,4,0.00
2013-10-30,65,58,53,64,58,51,99,96,91,30.22,30.07,3,0,3,0.25
2013-10-31,71,63,59,60,59,56,99,86,64,30.07,29.47,11,2,11,0.05
2013-11-1,72,60,55,62,51,44,92,75,46,29.75,29.45,23,3,23,0.37
2013-11-2,58,53,47,48,43,38,84,68,49,30.06,29.71,13,2,13,0.00
2013-11-3,55,46,37,44,37,33,87,74,53,30.39,30.05,6,1,6,0.00
2013-11-4,60,47,34,42,37,31,90,72,46,30.44,30.32,7,1,7,0.00
2013-11-5,66,53,44,42,39,37,82,63,36,30.45,30.28,6,1,6,0.00
2013-11-6,74,59,44,58,48,36,86,67,48,30.28,29.97,14,2,14,0.14
2013-11-7,62,48,34,59,40,29,92,75,49,30.23,29.95,13,3,13,0.43
2013-11-8,53,42,33,36,30,26,85,64,37,30.37,30.21,12,2,12,0.00
2013-11-9,63,48,32,37,28,17,84,53,17,30.28,30.06,16,2,16,0.00
2013-11-10,50,48,45,36,33,30,68,57,45,30.18,30.11,10,3,10,0.00
2013-11-11,60,53,34,39,28,19,85,40,22,30.33,30.06,12,2,12,0.00
2013-11-12,53,34,27,42,28,21,89,76,58,30.59,30.10,14,1,14,0.12
2013-11-13,40,31,22,28,21,18,85,69,42,30.62,30.42,9,1,9,0.05
2013-11-14,54,38,25,30,22,15,83,57,21,30.42,30.19,11,1,11,0.00
2013-11-15,58,44,31,44,33,24,88,66,36,30.24,30.12,11,1,11,0.05
2013-11-16,65,52,41,55,47,39,95,85,68,30.18,29.99,8,1,8,0.01
2013-11-17,65,60,53,62,55,50,98,84,72,30.00,29.64,23,2,23,0.76
2013-11-18,59,51,45,52,44,39,89,78,47,29.98,29.81,14,3,14,0.00
2013-11-21,54,52,51,43,42,42,74,70,64,30.24,30.19,2,0,6,0.00
2013-11-22,59,53,43,58,49,37,95,86,74,30.29,30.12,13,2,13,0.39
2013-11-23,45,38,28,38,27,14,83,65,37,30.46,30.24,17,4,17,0.00
2013-11-24,33,25,19,18,11,8,73,54,39,30.65,30.45,14,3,14,0.00
2013-11-25,44,32,20,30,17,12,78,57,30,30.54,30.21,14,1,14,0.00
2013-11-26,37,35,32,36,33,30,96,91,77,30.22,29.83,8,1,8,0.84
2013-11-27,33,31,29,32,26,23,95,83,76,29.97,29.84,13,4,13,0.00
2013-11-28,31,31,31,24,24,24,76,76,76,29.96,29.96,5,5,13,0.00
2013-11-29,31,30,27,24,24,22,81,76,76,29.96,29.91,5,5,13,0.07
2013-11-30,134,35,23,100,26,20,88,73,45,30.53,29.91,9,1,9,0.19
2013-12-1,46,38,30,34,31,26,89,74,57,30.25,30.00,8,1,8,0.00
2013-12-2,56,47,38,41,37,33,84,69,53,30.01,29.87,5,0,5,0.00
2013-12-3,57,47,37,48,40,33,89,80,67,29.99,29.89,6,0,6,0.00
2013-12-4,68,55,42,55,47,39,91,77,60,30.03,29.89,11,1,11,0.00
2013-12-5,70,58,40,63,53,38,94,84,69,30.12,29.93,17,3,17,1.00
2013-12-6,40,36,32,39,35,31,95,94,92,30.32,30.07,11,3,11,0.93
2013-12-7,32,30,27,31,26,22,94,85,79,30.57,30.31,0,0,0,0.01
2013-12-8,33,30,26,33,28,20,97,90,81,30.53,30.01,2,0,2,0.07
2013-12-9,37,35,32,36,32,27,99,91,83,30.22,30.01,11,2,11,0.13
2013-12-10,35,31,27,28,23,18,84,73,59,30.34,30.06,14,3,14,0.01
2013-12-11,40,31,20,28,22,16,86,70,52,30.45,30.29,13,2,13,0.00
2013-12-12,32,26,21,21,13,7,71,60,39,30.55,30.35,11,2,11,0.00
2013-12-13,43,30,19,26,19,13,81,63,38,30.37,30.17,9,1,9,0.00
2013-12-14,42,38,33,42,36,26,99,94,70,30.21,29.73,15,1,15,0.34
2013-12-15,40,33,30,38,29,25,93,84,77,30.13,29.79,18,4,18,0.00
2013-12-16,39,34,30,32,30,26,90,84,76,30.16,30.03,11,1,11,0.01
2013-12-17,43,37,31,38,33,24,93,83,70,30.19,29.95,17,3,17,0.01
2013-12-18,43,33,28,27,23,21,82,68,50,30.28,29.91,11,2,11,0.00
2013-12-19,62,44,28,32,26,21,76,53,28,30.18,30.05,18,2,18,0.00
2013-12-20,61,54,39,52,41,27,89,62,38,30.06,29.93,14,3,17,0.07
2013-12-21,73,64,56,62,57,51,95,79,65,29.94,29.63,18,4,18,0.31
2013-12-22,70,59,53,62,55,49,96,86,67,30.01,29.62,24,3,24,0.54
2013-12-23,53,40,33,50,36,28,94,85,73,30.35,29.99,11,2,11,0.09
2013-12-24,33,27,19,28,18,11,82,69,49,30.55,30.32,14,3,14,0.00
2013-12-25,37,28,18,25,17,11,79,65,42,30.51,30.22,14,1,14,0.00
2013-12-26,45,37,28,28,24,21,75,59,42,30.39,30.19,16,2,16,0.00
2013-12-27,50,35,24,31,23,19,83,63,33,30.45,30.33,9,1,9,0.00
2013-12-28,54,40,26,32,26,20,82,60,34,30.34,30.05,7,1,7,0.00
2013-12-29,44,42,40,42,39,30,95,90,62,30.06,29.80,10,2,10,0.65
2013-12-30,40,34,30,38,29,23,92,81,73,30.22,29.98,10,2,10,0.01
2013-12-31,37,30,26,23,21,20,80,71,54,30.38,30.18,17,3,17,0.00
2014-1-1,50,36,25,32,25,20,86,68,39,30.32,30.03,8,1,8,0.00
2014-1-2,36,30,15,34,26,10,93,83,75,30.16,29.71,17,0,17,0.24